SIF weather

Rockingham County NC Shiloh Airport
Reidsville, North Carolina, United States

Public forecast

Using degrees Fahrenheit for public forecast. Weather courtesy of forecast.io.

METAR (pilot weather report)

Retrieved 2019/07/16 07:40 UTC (5 minutes ago):

KSIF 160740Z AUTO 22/21 A3010 RMK AO2 T02170213 PWINO

TAF (pilot weather forecast)

Closest forecast is Piedmont Triad International Airport, 20.8 nm (38.5 km) SSW. Retrieved 2019/07/16 06:48 UTC (57 minutes ago):

TAF KGSO 160540Z 1606/1706 VRB03KT P6SM BKN220 PROB30 1619/1623 VRB15G30KT TS SCT060CB BKN120 BKN220